createdAt,value
2022-11-07T00:00:50.345Z,43.01
2022-11-07T00:01:50.851Z,43.35
2022-11-07T00:02:49.824Z,43.22
2022-11-07T00:03:49.826Z,44.33
2022-11-07T00:04:49.791Z,44.73
2022-11-07T00:05:49.814Z,63.69
2022-11-07T00:06:49.790Z,46.56
2022-11-07T00:07:49.765Z,50.06
2022-11-07T00:08:49.760Z,43.68
2022-11-07T00:09:49.786Z,50.98
2022-11-07T00:10:49.731Z,44.01
2022-11-07T00:11:49.743Z,49.29
2022-11-07T00:12:49.758Z,43.32
2022-11-07T00:13:49.702Z,42.89
2022-11-07T00:14:49.694Z,43.04
2022-11-07T00:15:49.733Z,58.10
2022-11-07T00:16:49.696Z,45.68
2022-11-07T00:17:49.685Z,43.12
2022-11-07T00:18:49.695Z,45.31
2022-11-07T00:19:49.654Z,54.76
2022-11-07T00:20:49.643Z,43.54
2022-11-07T00:21:49.694Z,45.07
2022-11-07T00:22:49.643Z,60.49
2022-11-07T00:23:49.676Z,50.70
2022-11-07T00:24:49.638Z,44.00
2022-11-07T00:25:49.629Z,45.92
2022-11-07T00:26:49.628Z,46.46
2022-11-07T00:27:49.597Z,44.61
2022-11-07T00:28:49.575Z,43.50
2022-11-07T00:29:50.605Z,43.88
2022-11-07T00:30:50.160Z,44.40
2022-11-07T00:31:49.562Z,45.35
2022-11-07T00:32:49.553Z,46.59
2022-11-07T00:33:49.551Z,51.04
2022-11-07T00:34:49.551Z,48.26
2022-11-07T00:35:49.556Z,43.28
2022-11-07T00:36:49.606Z,45.50
2022-11-07T00:37:49.521Z,53.93
2022-11-07T00:38:49.507Z,43.18
2022-11-07T00:39:49.503Z,47.19
2022-11-07T00:40:49.515Z,45.23
2022-11-07T00:41:49.499Z,43.63
2022-11-07T00:42:49.504Z,44.52
2022-11-07T00:43:49.479Z,56.04
2022-11-07T00:44:49.472Z,43.38
2022-11-07T00:45:49.463Z,49.78
2022-11-07T00:46:49.460Z,44.09
2022-11-07T00:47:49.472Z,43.20
2022-11-07T00:48:49.470Z,44.11
2022-11-07T00:49:49.425Z,45.43
2022-11-07T00:50:49.407Z,44.23
2022-11-07T00:51:49.413Z,45.38
2022-11-07T00:52:49.421Z,47.90
2022-11-07T00:53:49.420Z,45.00
2022-11-07T00:54:49.393Z,43.61
2022-11-07T00:55:50.082Z,43.08
2022-11-07T00:56:49.402Z,43.39
2022-11-07T00:57:49.366Z,43.47
2022-11-07T00:58:49.360Z,44.21
2022-11-07T00:59:49.358Z,60.56
2022-11-07T01:00:49.403Z,49.40
2022-11-07T01:01:49.471Z,50.36
2022-11-07T01:02:49.424Z,43.77
2022-11-07T01:03:49.322Z,43.41
2022-11-07T01:04:49.355Z,45.51
2022-11-07T01:05:49.312Z,59.02
2022-11-07T01:06:49.305Z,53.20
2022-11-07T01:07:49.352Z,49.51
2022-11-07T01:08:49.313Z,44.04
2022-11-07T01:09:49.285Z,43.33
2022-11-07T01:10:49.299Z,43.59
2022-11-07T01:11:49.277Z,54.88
2022-11-07T01:12:49.246Z,44.44
2022-11-07T01:13:49.276Z,55.57
2022-11-07T01:14:49.241Z,45.16
2022-11-07T01:15:49.239Z,44.78
2022-11-07T01:16:50.167Z,44.74
2022-11-07T01:17:49.235Z,43.72
2022-11-07T01:18:49.238Z,43.24
2022-11-07T01:19:49.247Z,43.90
2022-11-07T01:20:49.209Z,50.07
2022-11-07T01:21:49.362Z,50.55
2022-11-07T01:22:49.203Z,44.03
2022-11-07T01:23:49.180Z,44.80
2022-11-07T01:24:49.165Z,57.93
2022-11-07T01:25:49.197Z,43.94
2022-11-07T01:26:49.203Z,43.54
2022-11-07T01:27:49.139Z,43.83
2022-11-07T01:28:49.154Z,43.62
2022-11-07T01:29:49.144Z,44.23
2022-11-07T01:30:49.115Z,43.56
2022-11-07T01:31:49.143Z,43.35
2022-11-07T01:32:49.105Z,43.18
2022-11-07T01:33:49.713Z,43.35
2022-11-07T01:34:49.106Z,43.10
2022-11-07T01:35:49.110Z,43.67
2022-11-07T01:36:49.082Z,43.29
2022-11-07T01:37:49.078Z,43.64
2022-11-07T01:38:49.055Z,56.92
2022-11-07T01:39:49.042Z,65.17
2022-11-07T01:40:49.665Z,47.72
2022-11-07T01:41:49.056Z,43.44
2022-11-07T01:42:49.026Z,43.32
2022-11-07T01:43:49.071Z,48.66
2022-11-07T02:03:18.456Z,45.95
2022-11-07T02:04:20.518Z,45.22
2022-11-07T02:05:19.565Z,46.56
2022-11-07T02:06:19.532Z,54.86
2022-11-07T02:07:19.542Z,43.94
2022-11-07T02:08:19.532Z,43.68
2022-11-07T02:09:19.516Z,46.65
2022-11-07T02:10:19.540Z,45.39
2022-11-07T02:11:19.492Z,43.38
2022-11-07T02:12:19.527Z,43.37
2022-11-07T02:13:19.480Z,43.64
2022-11-07T02:14:19.484Z,51.08
2022-11-07T02:15:51.400Z,52.19
2022-11-07T02:16:19.468Z,50.34
2022-11-07T02:17:19.482Z,52.64
2022-11-07T02:18:19.464Z,43.26
2022-11-07T02:19:19.435Z,49.28
2022-11-07T02:20:20.165Z,43.54
2022-11-07T02:21:19.480Z,44.82
2022-11-07T02:22:19.411Z,47.09
2022-11-07T02:23:19.427Z,44.17
2022-11-07T02:24:19.460Z,44.00
2022-11-07T02:25:19.400Z,51.63
2022-11-07T02:26:19.412Z,49.56
2022-11-07T02:27:19.396Z,43.58
2022-11-07T02:28:19.377Z,43.30
2022-11-07T02:29:19.357Z,43.94
2022-11-07T02:30:19.396Z,45.69
2022-11-07T02:31:19.348Z,46.00
2022-11-07T02:32:19.329Z,44.78
2022-11-07T02:33:19.342Z,43.96
2022-11-07T02:34:19.418Z,45.42
2022-11-07T02:35:20.318Z,45.33
2022-11-07T02:36:19.292Z,50.33
2022-11-07T02:37:19.327Z,45.15
2022-11-07T02:38:19.309Z,43.87
2022-11-07T02:39:19.303Z,49.26
2022-11-07T02:40:19.288Z,54.96
2022-11-07T02:41:19.288Z,44.80
2022-11-07T02:42:19.257Z,44.77
2022-11-07T02:43:19.263Z,46.35
2022-11-07T02:44:19.259Z,50.14
2022-11-07T02:45:19.255Z,47.39
2022-11-07T02:46:19.215Z,47.19
2022-11-07T02:47:19.210Z,48.95
2022-11-07T02:48:19.216Z,44.74
2022-11-07T02:49:19.206Z,48.98
2022-11-07T02:50:19.209Z,48.65
2022-11-07T02:51:19.213Z,45.02
2022-11-07T02:52:19.182Z,58.17
2022-11-07T02:53:19.177Z,49.15
2022-11-07T02:54:19.161Z,54.45
2022-11-07T02:55:19.188Z,52.85
2022-11-07T02:56:19.151Z,44.98
2022-11-07T02:57:19.146Z,47.08
2022-11-07T02:58:19.124Z,45.84
2022-11-07T02:59:22.962Z,54.74
2022-11-07T03:00:21.167Z,43.91
2022-11-07T03:01:19.159Z,56.10
2022-11-07T03:02:19.261Z,43.94
2022-11-07T03:03:19.116Z,53.89
2022-11-07T03:04:19.092Z,48.82
2022-11-07T03:05:19.094Z,48.68
2022-11-07T03:06:19.101Z,44.50
2022-11-07T03:07:19.097Z,43.59
2022-11-07T03:08:19.066Z,43.88
2022-11-07T03:09:19.050Z,43.47
2022-11-07T03:10:19.048Z,50.01
2022-11-07T03:11:19.072Z,48.27
2022-11-07T03:12:19.087Z,48.54
2022-11-07T03:13:19.027Z,44.04
2022-11-07T03:14:19.033Z,54.46
2022-11-07T03:15:19.022Z,55.11
2022-11-07T03:16:19.002Z,48.91
2022-11-07T03:17:20.030Z,49.64
2022-11-07T03:18:19.037Z,60.65
2022-11-07T03:19:18.986Z,46.88
2022-11-07T03:20:19.509Z,44.11
2022-11-07T03:21:18.984Z,49.58
2022-11-07T03:22:18.961Z,58.43
2022-11-07T03:23:18.974Z,56.75
2022-11-07T03:24:18.989Z,47.37
2022-11-07T03:25:18.954Z,48.70
2022-11-07T03:26:18.927Z,46.70
2022-11-07T03:27:18.910Z,52.92
2022-11-07T03:28:18.939Z,48.49
2022-11-07T03:29:18.900Z,57.43
2022-11-07T03:30:18.907Z,55.24
2022-11-07T03:31:19.897Z,45.95
2022-11-07T03:32:18.866Z,44.93
2022-11-07T03:33:18.872Z,49.69
2022-11-07T03:34:18.866Z,54.05
2022-11-07T03:35:18.868Z,55.78
2022-11-07T03:36:18.855Z,51.67
2022-11-07T03:37:18.879Z,50.83
2022-11-07T03:38:18.960Z,50.49
2022-11-07T03:39:24.633Z,49.58
2022-11-07T03:40:20.845Z,50.05
2022-11-07T03:41:18.833Z,58.31
2022-11-07T03:42:18.827Z,45.19
2022-11-07T03:43:18.808Z,44.18
2022-11-07T03:44:18.779Z,56.41
2022-11-07T03:45:18.803Z,45.03
2022-11-07T03:46:18.779Z,55.34
2022-11-07T03:47:18.763Z,53.61
2022-11-07T04:03:39.226Z,50.17
2022-11-07T04:04:39.247Z,52.08
2022-11-07T04:05:39.224Z,53.82
2022-11-07T04:06:40.347Z,60.32
2022-11-07T04:07:40.357Z,52.48
2022-11-07T04:08:40.317Z,62.84
2022-11-07T04:09:40.300Z,57.37
2022-11-07T04:10:40.359Z,58.24
2022-11-07T04:11:40.293Z,59.68
2022-11-07T04:12:41.330Z,53.41
2022-11-07T04:13:40.281Z,53.40
2022-11-07T04:14:40.286Z,57.05
2022-11-07T04:15:40.413Z,61.52
2022-11-07T04:16:40.279Z,60.29
2022-11-07T04:17:40.258Z,61.11
2022-11-07T04:18:40.251Z,49.98
2022-11-07T04:19:41.222Z,55.22
2022-11-07T04:20:40.230Z,61.46
2022-11-07T04:21:40.230Z,64.08
2022-11-07T04:22:40.249Z,61.89
2022-11-07T04:23:40.220Z,55.33
2022-11-07T04:24:45.424Z,65.31
2022-11-07T04:25:42.206Z,56.58
2022-11-07T04:26:40.272Z,58.79
2022-11-07T04:27:40.294Z,55.20
2022-11-07T04:28:40.179Z,65.49
2022-11-07T04:29:40.148Z,67.41
2022-11-07T04:30:40.166Z,63.63
2022-11-07T04:31:40.151Z,60.86
2022-11-07T04:32:40.148Z,62.99
2022-11-07T04:33:40.156Z,64.46
2022-11-07T04:34:40.159Z,60.33
2022-11-07T04:35:40.119Z,66.07
2022-11-07T04:36:40.114Z,65.67
2022-11-07T04:37:40.095Z,59.96
2022-11-07T04:38:40.092Z,66.63
2022-11-07T04:39:40.093Z,68.24
2022-11-07T04:40:40.117Z,67.31
2022-11-07T04:41:41.082Z,61.48
2022-11-07T04:42:40.084Z,61.08
2022-11-07T04:43:40.043Z,65.71
2022-11-07T04:44:40.037Z,64.03
2022-11-07T04:45:40.081Z,66.19
2022-11-07T04:46:40.042Z,65.14
2022-11-07T04:47:40.752Z,63.61
2022-11-07T04:48:41.027Z,64.59
2022-11-07T04:49:40.003Z,55.99
2022-11-07T04:50:40.000Z,64.45
2022-11-07T04:51:39.997Z,64.21
2022-11-07T04:52:39.979Z,65.79
2022-11-07T04:53:39.964Z,63.31
2022-11-07T04:54:39.956Z,63.44
2022-11-07T04:55:39.947Z,61.63
2022-11-07T04:56:39.959Z,65.75
2022-11-07T04:57:40.041Z,58.95
2022-11-07T04:58:39.912Z,65.96
2022-11-07T04:59:39.904Z,62.88
2022-11-07T05:00:39.893Z,65.50
2022-11-07T05:01:39.958Z,56.58
2022-11-07T05:02:39.965Z,62.68
2022-11-07T05:03:42.132Z,63.28
2022-11-07T05:04:40.870Z,65.06
2022-11-07T05:05:39.890Z,61.98
2022-11-07T05:06:40.788Z,59.87
2022-11-07T05:07:39.880Z,63.62
2022-11-07T05:08:39.876Z,62.41
2022-11-07T05:09:39.843Z,65.24
2022-11-07T05:10:39.861Z,65.45
2022-11-07T05:11:39.831Z,58.51
2022-11-07T05:12:39.818Z,63.81
2022-11-07T05:13:39.839Z,66.93
2022-11-07T05:14:39.811Z,67.77
2022-11-07T05:15:39.822Z,61.76
2022-11-07T05:16:39.777Z,67.02
2022-11-07T05:17:39.765Z,68.91
2022-11-07T05:18:39.780Z,68.52
2022-11-07T05:19:40.434Z,65.24
2022-11-07T05:20:39.744Z,64.95
2022-11-07T05:21:39.749Z,66.73
2022-11-07T05:22:39.731Z,61.59
2022-11-07T05:23:39.773Z,66.33
2022-11-07T05:24:39.724Z,57.76
2022-11-07T05:25:39.748Z,69.03
2022-11-07T05:26:40.003Z,65.65
2022-11-07T05:27:39.705Z,69.02
2022-11-07T05:28:40.084Z,70.32
2022-11-07T05:29:39.670Z,66.54
2022-11-07T05:30:39.732Z,67.67
2022-11-07T05:31:39.693Z,65.94
2022-11-07T05:32:39.638Z,59.84
2022-11-07T05:33:39.655Z,68.06
2022-11-07T05:34:39.670Z,65.66
2022-11-07T05:35:39.669Z,68.66
2022-11-07T05:36:40.437Z,69.01
2022-11-07T05:37:39.609Z,70.46
2022-11-07T05:38:39.746Z,67.09
2022-11-07T05:39:39.581Z,70.25
2022-11-07T05:40:39.588Z,73.15
2022-11-07T05:41:39.601Z,67.11
2022-11-07T05:42:39.650Z,69.59
2022-11-07T05:43:39.580Z,67.81
2022-11-07T05:44:39.570Z,68.71
2022-11-07T05:45:39.583Z,70.70
2022-11-07T05:46:39.578Z,66.94
2022-11-07T05:47:39.571Z,73.19
2022-11-07T05:48:39.537Z,68.56
2022-11-07T05:49:39.539Z,67.26
2022-11-07T05:50:39.535Z,67.53
2022-11-07T05:51:39.518Z,67.81
2022-11-07T05:52:39.542Z,60.90
2022-11-07T05:53:39.517Z,68.87
2022-11-07T05:54:39.563Z,72.48
2022-11-07T05:55:39.515Z,67.64
2022-11-07T05:56:39.477Z,66.80
2022-11-07T05:57:39.496Z,65.89
2022-11-07T05:58:39.458Z,68.58
2022-11-07T05:59:39.476Z,70.12
2022-11-07T06:00:39.443Z,58.73
2022-11-07T06:01:39.572Z,65.54
2022-11-07T06:02:39.661Z,68.71
2022-11-07T06:03:39.454Z,71.65
2022-11-07T06:04:39.426Z,67.27
2022-11-07T06:05:39.420Z,69.62
2022-11-07T06:06:39.406Z,65.08
2022-11-07T06:07:39.416Z,72.23
2022-11-07T06:08:39.387Z,62.93
2022-11-07T06:09:39.402Z,68.68
2022-11-07T06:10:39.399Z,74.65
2022-11-07T06:11:39.350Z,69.42
2022-11-07T06:12:39.364Z,69.46
2022-11-07T06:13:39.332Z,69.91
2022-11-07T06:14:39.362Z,62.12
2022-11-07T06:15:39.336Z,74.54
2022-11-07T06:16:39.348Z,70.72
2022-11-07T06:17:39.300Z,64.03
2022-11-07T06:18:41.744Z,71.04
2022-11-07T06:19:40.329Z,68.83
2022-11-07T06:20:39.273Z,71.24
2022-11-07T06:21:39.301Z,73.51
2022-11-07T06:22:39.270Z,71.04
2022-11-07T06:23:39.274Z,69.78
2022-11-07T06:24:39.297Z,71.26
2022-11-07T06:25:39.271Z,73.19
2022-11-07T06:26:39.236Z,69.21
2022-11-07T06:27:39.272Z,72.88
2022-11-07T06:28:39.249Z,70.15
2022-11-07T06:29:39.251Z,70.34
2022-11-07T06:30:39.217Z,71.08
2022-11-07T06:31:39.251Z,68.84
2022-11-07T06:32:39.195Z,72.25
2022-11-07T06:33:39.225Z,72.00
2022-11-07T06:34:39.173Z,72.01
2022-11-07T06:35:39.181Z,70.90
2022-11-07T06:36:39.162Z,67.97
2022-11-07T06:37:39.186Z,66.92
2022-11-07T06:38:39.153Z,67.26
2022-11-07T06:39:39.195Z,74.22
2022-11-07T06:40:39.146Z,73.45
2022-11-07T06:41:39.118Z,67.43
2022-11-07T06:42:39.204Z,74.09
2022-11-07T06:43:39.198Z,71.79
2022-11-07T06:44:39.093Z,71.24
2022-11-07T06:45:39.116Z,72.63
2022-11-07T06:46:39.090Z,71.85
2022-11-07T06:47:39.125Z,74.44
2022-11-07T06:48:39.103Z,69.75
2022-11-07T06:49:39.066Z,67.55
2022-11-07T06:50:39.054Z,69.59
2022-11-07T06:51:41.701Z,69.91
2022-11-07T06:52:39.087Z,70.02
2022-11-07T06:53:39.039Z,73.22
2022-11-07T06:54:39.023Z,69.84
2022-11-07T06:55:39.038Z,72.44
2022-11-07T06:56:39.008Z,70.80
2022-11-07T06:57:39.018Z,69.00
2022-11-07T06:58:39.027Z,71.67
2022-11-07T06:59:38.993Z,69.52
2022-11-07T07:00:39.084Z,69.77
2022-11-07T07:01:39.176Z,69.47
2022-11-07T07:02:57.479Z,67.09
2022-11-07T07:03:40.961Z,67.26
2022-11-07T07:04:38.963Z,68.16
2022-11-07T07:05:38.969Z,66.63
2022-11-07T07:06:38.956Z,71.99
2022-11-07T07:07:38.946Z,68.58
2022-11-07T07:08:38.951Z,68.72
2022-11-07T07:09:38.898Z,69.20
2022-11-07T07:10:38.902Z,70.94
2022-11-07T07:11:38.922Z,67.34
2022-11-07T07:12:38.882Z,68.81
2022-11-07T07:13:38.910Z,68.51
2022-11-07T07:14:38.953Z,71.55
2022-11-07T07:15:50.310Z,71.12
2022-11-07T07:16:40.850Z,63.91
2022-11-07T07:17:38.869Z,65.71
2022-11-07T07:18:38.870Z,69.10
2022-11-07T07:19:38.824Z,68.83
2022-11-07T07:20:38.824Z,63.30
2022-11-07T07:21:38.858Z,66.31
2022-11-07T07:22:38.821Z,69.58
2022-11-07T07:23:38.797Z,65.89
2022-11-07T07:24:38.802Z,66.82
2022-11-07T07:25:39.341Z,69.85
2022-11-07T07:26:38.797Z,69.57
2022-11-07T07:27:38.797Z,65.13
2022-11-07T07:28:38.755Z,69.87
2022-11-07T07:29:38.814Z,70.23
2022-11-07T07:30:38.868Z,68.55
2022-11-07T07:31:38.763Z,71.35
2022-11-07T07:32:38.742Z,64.98
2022-11-07T07:33:38.732Z,69.70
2022-11-07T07:34:39.719Z,66.14
2022-11-07T07:35:38.756Z,68.21
2022-11-07T07:36:38.725Z,69.28
2022-11-07T07:37:38.691Z,70.70
2022-11-07T07:38:38.688Z,61.03
2022-11-07T07:39:39.686Z,64.27
2022-11-07T07:40:38.710Z,72.65
2022-11-07T07:41:40.295Z,69.45
2022-11-07T07:42:39.644Z,65.47
2022-11-07T07:43:38.678Z,66.81
2022-11-07T07:44:38.619Z,68.74
2022-11-07T07:45:38.641Z,66.20
2022-11-07T07:46:38.775Z,66.02
2022-11-07T07:47:38.621Z,69.18
2022-11-07T07:48:38.612Z,67.20
2022-11-07T07:49:38.617Z,67.74
2022-11-07T07:50:38.613Z,60.29
2022-11-07T07:51:38.632Z,69.52
2022-11-07T07:52:38.567Z,70.19
2022-11-07T07:53:38.602Z,65.21
2022-11-07T07:54:38.553Z,72.08
2022-11-07T07:55:38.587Z,66.34
2022-11-07T07:56:38.562Z,68.50
2022-11-07T07:57:38.519Z,66.89
2022-11-07T07:58:38.534Z,67.58
2022-11-07T07:59:38.524Z,70.46
2022-11-07T08:00:38.563Z,68.99
2022-11-07T08:01:38.597Z,66.28
2022-11-07T08:02:39.645Z,71.91
2022-11-07T08:03:59.518Z,64.82
2022-11-07T08:04:40.502Z,64.22
2022-11-07T08:05:38.552Z,65.22
2022-11-07T08:06:38.519Z,66.26
2022-11-07T08:07:38.530Z,64.58
2022-11-07T08:08:38.605Z,68.71
2022-11-07T08:09:38.448Z,63.81
2022-11-07T08:10:43.001Z,69.89
2022-11-07T08:11:39.445Z,72.07
2022-11-07T08:12:38.414Z,68.08
2022-11-07T08:13:38.456Z,63.69
2022-11-07T08:14:38.429Z,66.26
2022-11-07T08:16:10.423Z,69.67
2022-11-07T08:16:38.456Z,72.01
2022-11-07T08:17:38.425Z,60.54
2022-11-07T08:18:38.462Z,70.60
2022-11-07T08:19:38.365Z,64.02
2022-11-07T08:20:38.358Z,71.27
2022-11-07T08:21:38.362Z,68.84
2022-11-07T08:22:38.336Z,69.11
2022-11-07T08:23:38.382Z,67.87
2022-11-07T08:24:38.342Z,68.94
2022-11-07T08:25:38.313Z,70.34
2022-11-07T08:26:38.324Z,64.45
2022-11-07T08:27:38.321Z,69.26
2022-11-07T08:28:38.389Z,70.03
2022-11-07T08:29:38.313Z,67.90
2022-11-07T08:30:38.342Z,65.34
2022-11-07T08:31:38.298Z,69.06
2022-11-07T08:32:38.281Z,65.45
2022-11-07T08:33:38.361Z,65.22
2022-11-07T08:34:38.291Z,71.12
2022-11-07T08:35:42.438Z,68.88
2022-11-07T08:36:39.266Z,69.05
2022-11-07T08:37:38.290Z,67.17
2022-11-07T08:38:38.258Z,63.40
2022-11-07T08:39:38.264Z,66.14
2022-11-07T08:40:38.251Z,68.12
2022-11-07T08:41:38.209Z,66.78
2022-11-07T08:42:38.269Z,58.19
2022-11-07T08:43:38.197Z,67.90
2022-11-07T08:44:38.192Z,65.74
2022-11-07T08:45:38.203Z,71.14
2022-11-07T08:46:38.289Z,70.35
2022-11-07T08:47:38.164Z,68.93
2022-11-07T08:48:38.206Z,69.09
2022-11-07T08:49:38.152Z,65.51
2022-11-07T08:50:38.260Z,67.07
2022-11-07T08:51:38.168Z,66.34
2022-11-07T08:52:39.174Z,62.77
2022-11-07T08:53:38.094Z,69.03
2022-11-07T08:54:38.114Z,63.05
2022-11-07T08:55:38.125Z,67.98
2022-11-07T08:56:38.128Z,62.22
2022-11-07T08:57:38.055Z,63.09
2022-11-07T08:58:38.094Z,68.48
2022-11-07T08:59:38.050Z,64.55
2022-11-07T09:00:38.115Z,64.81
2022-11-07T09:01:55.992Z,68.14
2022-11-07T09:03:54.662Z,65.94
2022-11-07T09:04:40.162Z,65.13
2022-11-07T09:05:38.031Z,69.83
2022-11-07T09:06:37.997Z,65.66
2022-11-07T09:07:37.992Z,70.25
2022-11-07T09:08:37.982Z,64.82
2022-11-07T09:09:37.970Z,69.70
2022-11-07T09:10:37.994Z,68.26
2022-11-07T09:11:37.978Z,72.46
2022-11-07T09:12:37.988Z,66.66
2022-11-07T09:13:37.989Z,62.35
2022-11-07T09:14:37.921Z,58.93
2022-11-07T09:15:37.913Z,68.55
2022-11-07T09:16:37.945Z,70.13
2022-11-07T09:17:37.904Z,67.75
2022-11-07T09:18:37.895Z,67.10
2022-11-07T09:19:37.946Z,70.44
2022-11-07T09:20:37.899Z,68.48
2022-11-07T09:21:38.126Z,66.23
2022-11-07T09:22:37.916Z,66.84
2022-11-07T09:23:37.878Z,67.18
2022-11-07T09:24:37.889Z,67.61
2022-11-07T09:25:37.874Z,68.50
2022-11-07T09:26:37.876Z,68.54
2022-11-07T09:27:37.828Z,68.77
2022-11-07T09:28:37.839Z,69.55
2022-11-07T09:29:37.848Z,66.34
2022-11-07T09:30:37.804Z,66.07
2022-11-07T09:31:37.819Z,69.04
2022-11-07T09:32:45.126Z,67.11
2022-11-07T09:33:39.824Z,67.55
2022-11-07T09:34:37.819Z,65.00
2022-11-07T09:35:37.751Z,59.21
2022-11-07T09:36:37.800Z,67.30
2022-11-07T09:37:37.732Z,63.83
2022-11-07T09:38:37.760Z,65.56
2022-11-07T09:39:37.776Z,65.21
2022-11-07T09:40:37.757Z,66.81
2022-11-07T09:41:37.721Z,66.59
2022-11-07T09:42:38.485Z,69.64
2022-11-07T09:43:37.695Z,63.55
2022-11-07T09:44:37.844Z,64.94
2022-11-07T09:45:37.698Z,62.98
2022-11-07T09:46:37.701Z,70.62
2022-11-07T09:47:37.699Z,63.28
2022-11-07T09:48:37.672Z,62.05
2022-11-07T09:49:37.671Z,65.49
2022-11-07T09:50:37.648Z,60.53
2022-11-07T09:51:37.678Z,66.62
2022-11-07T09:52:37.672Z,67.44
2022-11-07T09:53:37.652Z,70.35
2022-11-07T09:54:37.614Z,63.94
2022-11-07T09:55:37.604Z,57.75
2022-11-07T09:56:37.633Z,68.58
2022-11-07T09:57:37.661Z,64.88
2022-11-07T09:58:37.698Z,63.36
2022-11-07T09:59:37.607Z,69.77
2022-11-07T10:00:37.672Z,70.97
2022-11-07T10:01:37.718Z,66.86
2022-11-07T10:02:37.574Z,67.58
2022-11-07T10:03:37.583Z,63.42
2022-11-07T10:04:37.563Z,69.88
2022-11-07T10:05:37.531Z,65.34
2022-11-07T10:06:37.538Z,67.93
2022-11-07T10:07:37.516Z,64.90
2022-11-07T10:08:37.527Z,67.30
2022-11-07T10:09:37.502Z,65.08
2022-11-07T10:10:37.512Z,66.43
2022-11-07T10:11:37.507Z,65.64
2022-11-07T10:12:43.258Z,66.58
2022-11-07T10:13:39.482Z,66.25
2022-11-07T10:14:37.489Z,69.43
2022-11-07T10:15:37.463Z,60.74
2022-11-07T10:16:37.512Z,66.18
2022-11-07T10:17:37.444Z,65.44
2022-11-07T10:18:37.436Z,68.78
2022-11-07T10:19:37.435Z,67.41
2022-11-07T10:20:37.422Z,64.24
2022-11-07T10:21:38.792Z,65.29
2022-11-07T10:22:38.377Z,70.26
2022-11-07T10:23:37.390Z,70.45
2022-11-07T10:24:37.383Z,69.09
2022-11-07T10:25:37.380Z,65.43
2022-11-07T10:26:37.362Z,69.72
2022-11-07T10:27:37.360Z,64.34
2022-11-07T10:28:37.378Z,66.51
2022-11-07T10:29:43.252Z,69.10
2022-11-07T10:30:39.318Z,69.64
2022-11-07T10:31:37.323Z,64.96
2022-11-07T10:32:37.326Z,64.10
2022-11-07T10:33:37.325Z,68.04
2022-11-07T10:34:37.297Z,68.41
2022-11-07T10:35:37.300Z,68.35
2022-11-07T10:36:37.296Z,70.02
2022-11-07T10:37:37.289Z,70.40
2022-11-07T10:38:37.297Z,65.89
2022-11-07T10:39:37.246Z,65.36
2022-11-07T10:40:37.247Z,71.89
2022-11-07T10:41:37.289Z,66.44
2022-11-07T10:42:37.272Z,69.46
2022-11-07T10:43:37.238Z,67.61
2022-11-07T10:44:37.229Z,65.14
2022-11-07T10:45:37.219Z,66.44
2022-11-07T10:46:37.201Z,68.33
2022-11-07T10:47:37.179Z,66.29
2022-11-07T10:48:37.598Z,66.82
2022-11-07T10:49:37.168Z,68.47
2022-11-07T10:50:37.173Z,63.25
2022-11-07T10:51:37.187Z,63.21
2022-11-07T10:52:37.162Z,66.18
2022-11-07T10:53:37.140Z,65.33
2022-11-07T10:54:37.161Z,62.86
2022-11-07T10:55:37.143Z,64.54
2022-11-07T10:56:37.110Z,71.41
2022-11-07T10:57:37.131Z,63.59
2022-11-07T10:58:37.135Z,68.35
2022-11-07T10:59:37.232Z,68.40
2022-11-07T11:00:37.128Z,67.37
2022-11-07T11:01:37.296Z,61.18
2022-11-07T11:02:37.095Z,67.75
2022-11-07T11:03:44.335Z,59.58
2022-11-07T11:04:39.049Z,65.47
2022-11-07T11:05:37.046Z,67.67
2022-11-07T11:06:37.064Z,68.65
2022-11-07T11:07:37.020Z,66.64
2022-11-07T11:08:37.042Z,67.80
2022-11-07T11:09:37.016Z,67.99
2022-11-07T11:10:37.009Z,62.43
2022-11-07T11:11:37.000Z,63.69
2022-11-07T11:12:37.407Z,70.26
2022-11-07T11:13:36.992Z,67.67
2022-11-07T11:14:37.059Z,67.99
2022-11-07T11:15:36.985Z,64.99
2022-11-07T11:16:36.976Z,67.06
2022-11-07T11:17:36.989Z,69.11
2022-11-07T11:18:37.008Z,68.14
2022-11-07T11:19:36.944Z,64.25
2022-11-07T11:20:36.950Z,63.44
2022-11-07T11:21:36.960Z,67.83
2022-11-07T11:22:36.961Z,68.07
2022-11-07T11:23:36.947Z,67.94
2022-11-07T11:24:36.928Z,65.20
2022-11-07T11:25:36.919Z,59.80
2022-11-07T11:26:36.907Z,69.63
2022-11-07T11:27:36.863Z,65.25
2022-11-07T11:28:36.879Z,62.33
2022-11-07T11:29:39.719Z,60.14
2022-11-07T11:30:37.852Z,69.26
2022-11-07T11:31:36.869Z,64.15
2022-11-07T11:32:36.837Z,66.36
2022-11-07T11:33:36.876Z,67.70
2022-11-07T11:34:36.840Z,59.37
2022-11-07T11:35:41.658Z,68.08
2022-11-07T11:36:38.820Z,68.41
2022-11-07T11:37:36.809Z,64.60
2022-11-07T11:38:36.829Z,66.20
2022-11-07T11:39:36.828Z,69.48
2022-11-07T11:40:36.770Z,64.09
2022-11-07T11:41:36.769Z,68.10
2022-11-07T11:42:36.762Z,62.29
2022-11-07T11:43:36.778Z,71.95
2022-11-07T11:44:36.738Z,66.39
2022-11-07T11:45:36.734Z,68.33
2022-11-07T11:46:36.940Z,66.33
2022-11-07T11:47:36.745Z,68.92
2022-11-07T11:48:36.753Z,68.03
2022-11-07T11:49:36.706Z,69.87
2022-11-07T11:50:36.720Z,68.75
2022-11-07T11:51:36.722Z,71.17
2022-11-07T11:52:36.704Z,68.46
2022-11-07T11:53:36.656Z,65.56
2022-11-07T11:54:36.657Z,66.03
2022-11-07T11:55:36.725Z,68.01
2022-11-07T11:56:36.637Z,68.34
2022-11-07T11:57:36.650Z,67.64
2022-11-07T11:58:36.672Z,69.32
2022-11-07T11:59:36.638Z,66.28
2022-11-07T12:00:36.642Z,69.57
2022-11-07T12:01:36.688Z,62.06
2022-11-07T12:02:36.643Z,62.87
2022-11-07T12:03:36.592Z,68.42
2022-11-07T12:04:36.603Z,67.35
2022-11-07T12:05:36.569Z,64.24
2022-11-07T12:06:36.641Z,70.24
2022-11-07T12:07:36.601Z,67.35
2022-11-07T12:08:36.594Z,65.93
2022-11-07T12:09:36.561Z,68.50
2022-11-07T12:10:36.535Z,69.35
2022-11-07T12:11:36.554Z,64.86
2022-11-07T12:12:36.556Z,67.06
2022-11-07T12:13:36.515Z,67.33
2022-11-07T12:14:36.517Z,64.05
2022-11-07T12:15:36.517Z,66.30
2022-11-07T12:16:36.516Z,67.22
2022-11-07T12:17:36.516Z,70.48
2022-11-07T12:18:36.577Z,67.57
2022-11-07T12:19:36.448Z,69.23
2022-11-07T12:20:36.487Z,63.27
2022-11-07T12:21:36.471Z,64.92
2022-11-07T12:22:36.453Z,65.81
2022-11-07T12:23:36.457Z,65.22
2022-11-07T12:24:36.421Z,67.02
2022-11-07T12:25:36.414Z,66.95
2022-11-07T12:26:36.402Z,69.18
2022-11-07T12:27:36.407Z,69.54
2022-11-07T12:28:37.420Z,67.53
2022-11-07T12:29:36.458Z,68.29
2022-11-07T12:30:36.415Z,65.16
2022-11-07T12:31:36.522Z,68.71
2022-11-07T12:32:36.376Z,65.84
2022-11-07T12:33:36.357Z,64.65
2022-11-07T12:34:36.376Z,68.61
2022-11-07T12:35:36.392Z,68.60
2022-11-07T12:36:37.407Z,62.30
2022-11-07T12:37:36.320Z,63.30
2022-11-07T12:38:36.443Z,71.18
2022-11-07T12:39:36.330Z,69.18
2022-11-07T12:40:36.322Z,66.11
2022-11-07T12:41:36.301Z,67.13
2022-11-07T12:42:36.309Z,65.31
2022-11-07T12:43:36.358Z,71.71
2022-11-07T12:44:36.299Z,69.96
2022-11-07T12:45:36.276Z,68.54
2022-11-07T12:46:36.274Z,67.92
2022-11-07T12:47:36.280Z,69.13
2022-11-07T12:48:36.243Z,65.35
2022-11-07T12:49:36.298Z,69.22
2022-11-07T12:50:36.252Z,66.53
2022-11-07T12:51:36.298Z,70.77
2022-11-07T12:52:36.220Z,64.71
2022-11-07T12:53:36.207Z,70.39
2022-11-07T12:54:36.202Z,60.54
2022-11-07T12:55:36.182Z,67.10
2022-11-07T12:56:36.207Z,70.28
2022-11-07T12:57:36.192Z,67.96
2022-11-07T12:58:36.163Z,67.82
2022-11-07T12:59:36.171Z,68.86
2022-11-07T13:00:36.164Z,65.45
2022-11-07T13:01:36.233Z,65.64
2022-11-07T13:02:36.208Z,68.70
2022-11-07T13:03:36.119Z,70.21
2022-11-07T13:04:36.121Z,63.91
2022-11-07T13:05:36.130Z,61.77
2022-11-07T13:06:36.153Z,71.44
2022-11-07T13:07:36.121Z,66.47
2022-11-07T13:08:36.108Z,64.63
2022-11-07T13:09:36.124Z,62.07
2022-11-07T13:10:36.074Z,67.20
2022-11-07T13:11:36.076Z,70.22
2022-11-07T13:12:36.084Z,70.56
2022-11-07T13:13:36.068Z,69.73
2022-11-07T13:14:36.102Z,65.75
2022-11-07T13:16:00.755Z,69.15
2022-11-07T13:16:38.070Z,69.27
2022-11-07T13:17:36.022Z,70.94
2022-11-07T13:18:36.053Z,65.58
2022-11-07T13:19:36.037Z,67.93
2022-11-07T13:20:36.021Z,64.80
2022-11-07T13:21:35.989Z,70.28
2022-11-07T13:22:36.001Z,69.12
2022-11-07T13:23:36.000Z,67.98
2022-11-07T13:24:35.971Z,68.24
2022-11-07T13:25:36.073Z,61.88
2022-11-07T13:26:51.402Z,68.74
2022-11-07T13:27:37.935Z,66.48